sensor_id;sensor_type;location;lat;lon;timestamp;P1;durP1;ratioP1;P2;durP2;ratioP2
21777;SDS011;11050;52.222;20.916;2023-12-04T00:01:24;30.80;;;15.50;;
21777;SDS011;11050;52.222;20.916;2023-12-04T00:03:51;30.13;;;14.27;;
21777;SDS011;11050;52.222;20.916;2023-12-04T00:06:18;37.50;;;16.40;;
21777;SDS011;11050;52.222;20.916;2023-12-04T00:08:44;32.70;;;15.43;;
21777;SDS011;11050;52.222;20.916;2023-12-04T00:11:10;22.07;;;9.40;;
21777;SDS011;11050;52.222;20.916;2023-12-04T00:13:36;38.37;;;19.83;;
21777;SDS011;11050;52.222;20.916;2023-12-04T00:16:02;39.33;;;20.10;;
21777;SDS011;11050;52.222;20.916;2023-12-04T00:18:28;38.73;;;17.90;;
21777;SDS011;11050;52.222;20.916;2023-12-04T00:20:54;38.13;;;17.70;;
21777;SDS011;11050;52.222;20.916;2023-12-04T00:23:20;30.10;;;14.70;;
21777;SDS011;11050;52.222;20.916;2023-12-04T00:25:45;37.80;;;18.13;;
21777;SDS011;11050;52.222;20.916;2023-12-04T00:28:11;33.67;;;16.03;;
21777;SDS011;11050;52.222;20.916;2023-12-04T00:30:37;36.53;;;18.77;;
21777;SDS011;11050;52.222;20.916;2023-12-04T00:33:03;35.40;;;18.17;;
21777;SDS011;11050;52.222;20.916;2023-12-04T00:35:28;39.30;;;18.23;;
21777;SDS011;11050;52.222;20.916;2023-12-04T00:37:54;30.63;;;14.60;;
21777;SDS011;11050;52.222;20.916;2023-12-04T00:40:20;38.83;;;16.37;;
21777;SDS011;11050;52.222;20.916;2023-12-04T00:42:45;39.93;;;19.40;;
21777;SDS011;11050;52.222;20.916;2023-12-04T00:45:11;38.00;;;16.83;;
21777;SDS011;11050;52.222;20.916;2023-12-04T00:47:37;33.93;;;15.17;;
21777;SDS011;11050;52.222;20.916;2023-12-04T00:50:03;33.93;;;16.93;;
21777;SDS011;11050;52.222;20.916;2023-12-04T00:52:29;39.20;;;18.17;;
21777;SDS011;11050;52.222;20.916;2023-12-04T00:54:55;42.30;;;19.60;;
21777;SDS011;11050;52.222;20.916;2023-12-04T00:57:20;44.93;;;19.10;;
21777;SDS011;11050;52.222;20.916;2023-12-04T00:59:46;37.77;;;17.70;;
21777;SDS011;11050;52.222;20.916;2023-12-04T01:02:12;26.47;;;14.33;;
21777;SDS011;11050;52.222;20.916;2023-12-04T01:04:41;40.70;;;20.57;;
21777;SDS011;11050;52.222;20.916;2023-12-04T01:07:07;40.10;;;19.73;;
21777;SDS011;11050;52.222;20.916;2023-12-04T01:09:36;30.37;;;14.93;;
21777;SDS011;11050;52.222;20.916;2023-12-04T01:12:02;31.70;;;16.97;;
21777;SDS011;11050;52.222;20.916;2023-12-04T01:14:29;34.73;;;17.47;;
21777;SDS011;11050;52.222;20.916;2023-12-04T01:16:55;35.93;;;18.37;;
21777;SDS011;11050;52.222;20.916;2023-12-04T01:19:21;35.77;;;17.03;;
21777;SDS011;11050;52.222;20.916;2023-12-04T01:21:47;23.60;;;12.03;;
21777;SDS011;11050;52.222;20.916;2023-12-04T01:24:13;35.67;;;17.67;;
21777;SDS011;11050;52.222;20.916;2023-12-04T01:26:40;33.77;;;16.50;;
21777;SDS011;11050;52.222;20.916;2023-12-04T01:29:06;22.30;;;10.40;;
21777;SDS011;11050;52.222;20.916;2023-12-04T01:31:32;34.40;;;18.53;;
21777;SDS011;11050;52.222;20.916;2023-12-04T01:33:58;24.97;;;12.63;;
21777;SDS011;11050;52.222;20.916;2023-12-04T01:36:23;28.07;;;14.53;;
21777;SDS011;11050;52.222;20.916;2023-12-04T01:38:49;21.40;;;10.17;;
21777;SDS011;11050;52.222;20.916;2023-12-04T01:41:15;30.57;;;15.17;;
21777;SDS011;11050;52.222;20.916;2023-12-04T01:43:40;27.30;;;12.00;;
21777;SDS011;11050;52.222;20.916;2023-12-04T01:46:06;27.43;;;14.77;;
21777;SDS011;11050;52.222;20.916;2023-12-04T01:48:32;25.20;;;13.37;;
21777;SDS011;11050;52.222;20.916;2023-12-04T01:50:58;31.33;;;16.40;;
21777;SDS011;11050;52.222;20.916;2023-12-04T01:53:31;24.23;;;12.73;;
21777;SDS011;11050;52.222;20.916;2023-12-04T01:55:58;24.73;;;12.93;;
21777;SDS011;11050;52.222;20.916;2023-12-04T01:58:24;24.80;;;13.80;;
21777;SDS011;11050;52.222;20.916;2023-12-04T02:00:50;18.87;;;9.20;;
21777;SDS011;11050;52.222;20.916;2023-12-04T02:03:15;25.60;;;13.17;;
21777;SDS011;11050;52.222;20.916;2023-12-04T02:05:43;16.93;;;9.80;;
21777;SDS011;11050;52.222;20.916;2023-12-04T02:08:09;22.77;;;12.37;;
21777;SDS011;11050;52.222;20.916;2023-12-04T02:10:36;22.60;;;10.33;;
21777;SDS011;11050;52.222;20.916;2023-12-04T02:13:02;20.97;;;10.97;;
21777;SDS011;11050;52.222;20.916;2023-12-04T02:15:29;21.83;;;10.87;;
21777;SDS011;11050;52.222;20.916;2023-12-04T02:17:54;20.83;;;11.17;;
21777;SDS011;11050;52.222;20.916;2023-12-04T02:20:20;16.90;;;9.30;;
21777;SDS011;11050;52.222;20.916;2023-12-04T02:22:56;22.10;;;10.93;;
21777;SDS011;11050;52.222;20.916;2023-12-04T02:25:22;19.07;;;8.93;;
21777;SDS011;11050;52.222;20.916;2023-12-04T02:27:49;20.23;;;10.00;;
21777;SDS011;11050;52.222;20.916;2023-12-04T02:30:17;18.23;;;8.33;;
21777;SDS011;11050;52.222;20.916;2023-12-04T02:32:46;14.77;;;8.93;;
21777;SDS011;11050;52.222;20.916;2023-12-04T02:35:25;17.80;;;9.17;;
21777;SDS011;11050;52.222;20.916;2023-12-04T02:37:56;23.73;;;11.60;;
21777;SDS011;11050;52.222;20.916;2023-12-04T02:40:23;22.63;;;11.40;;
21777;SDS011;11050;52.222;20.916;2023-12-04T02:42:50;17.33;;;8.47;;
21777;SDS011;11050;52.222;20.916;2023-12-04T02:45:16;22.30;;;9.90;;
21777;SDS011;11050;52.222;20.916;2023-12-04T02:47:42;18.23;;;10.17;;
21777;SDS011;11050;52.222;20.916;2023-12-04T02:50:07;20.30;;;10.77;;
21777;SDS011;11050;52.222;20.916;2023-12-04T02:52:33;18.40;;;9.13;;
21777;SDS011;11050;52.222;20.916;2023-12-04T02:54:59;17.47;;;9.50;;
21777;SDS011;11050;52.222;20.916;2023-12-04T02:57:25;21.30;;;11.10;;
21777;SDS011;11050;52.222;20.916;2023-12-04T02:59:51;18.80;;;9.43;;
21777;SDS011;11050;52.222;20.916;2023-12-04T03:02:16;21.03;;;11.40;;
21777;SDS011;11050;52.222;20.916;2023-12-04T03:04:42;14.10;;;7.80;;
21777;SDS011;11050;52.222;20.916;2023-12-04T03:07:08;23.03;;;11.10;;
21777;SDS011;11050;52.222;20.916;2023-12-04T03:09:33;21.67;;;10.90;;
21777;SDS011;11050;52.222;20.916;2023-12-04T03:11:59;21.03;;;10.80;;
21777;SDS011;11050;52.222;20.916;2023-12-04T03:14:25;19.23;;;10.33;;
21777;SDS011;11050;52.222;20.916;2023-12-04T03:16:51;15.23;;;8.63;;
21777;SDS011;11050;52.222;20.916;2023-12-04T03:19:16;11.60;;;6.17;;
21777;SDS011;11050;52.222;20.916;2023-12-04T03:21:42;24.57;;;11.90;;
21777;SDS011;11050;52.222;20.916;2023-12-04T03:24:08;20.00;;;9.40;;
21777;SDS011;11050;52.222;20.916;2023-12-04T03:26:34;25.83;;;12.20;;
21777;SDS011;11050;52.222;20.916;2023-12-04T03:29:00;21.10;;;10.57;;
21777;SDS011;11050;52.222;20.916;2023-12-04T03:31:26;19.97;;;9.63;;
21777;SDS011;11050;52.222;20.916;2023-12-04T03:33:53;20.80;;;10.30;;
21777;SDS011;11050;52.222;20.916;2023-12-04T03:36:19;23.87;;;11.90;;
21777;SDS011;11050;52.222;20.916;2023-12-04T03:38:45;19.33;;;9.27;;
21777;SDS011;11050;52.222;20.916;2023-12-04T03:41:14;24.50;;;10.93;;
21777;SDS011;11050;52.222;20.916;2023-12-04T03:43:40;21.43;;;11.13;;
21777;SDS011;11050;52.222;20.916;2023-12-04T03:46:06;25.50;;;13.00;;
21777;SDS011;11050;52.222;20.916;2023-12-04T03:48:33;22.13;;;12.50;;
21777;SDS011;11050;52.222;20.916;2023-12-04T03:50:58;21.87;;;11.03;;
21777;SDS011;11050;52.222;20.916;2023-12-04T03:53:25;14.67;;;7.53;;
21777;SDS011;11050;52.222;20.916;2023-12-04T03:55:51;24.80;;;12.90;;
21777;SDS011;11050;52.222;20.916;2023-12-04T03:58:17;25.87;;;12.70;;
21777;SDS011;11050;52.222;20.916;2023-12-04T04:00:43;22.90;;;12.10;;
21777;SDS011;11050;52.222;20.916;2023-12-04T04:03:09;28.50;;;14.40;;
21777;SDS011;11050;52.222;20.916;2023-12-04T04:05:35;24.37;;;12.20;;
21777;SDS011;11050;52.222;20.916;2023-12-04T04:08:09;30.30;;;14.02;;
21777;SDS011;11050;52.222;20.916;2023-12-04T04:10:35;23.17;;;12.03;;
21777;SDS011;11050;52.222;20.916;2023-12-04T04:13:01;25.37;;;12.73;;
21777;SDS011;11050;52.222;20.916;2023-12-04T04:15:27;27.17;;;12.90;;
21777;SDS011;11050;52.222;20.916;2023-12-04T04:17:53;16.47;;;8.73;;
21777;SDS011;11050;52.222;20.916;2023-12-04T04:20:19;24.37;;;11.90;;
21777;SDS011;11050;52.222;20.916;2023-12-04T04:22:47;27.57;;;14.90;;
21777;SDS011;11050;52.222;20.916;2023-12-04T04:25:14;20.90;;;10.17;;
21777;SDS011;11050;52.222;20.916;2023-12-04T04:27:40;22.70;;;11.67;;
21777;SDS011;11050;52.222;20.916;2023-12-04T04:30:06;29.30;;;14.43;;
21777;SDS011;11050;52.222;20.916;2023-12-04T04:32:33;18.27;;;8.70;;
21777;SDS011;11050;52.222;20.916;2023-12-04T04:34:59;29.10;;;13.97;;
21777;SDS011;11050;52.222;20.916;2023-12-04T04:37:25;31.40;;;15.07;;
21777;SDS011;11050;52.222;20.916;2023-12-04T04:39:50;30.37;;;14.40;;
21777;SDS011;11050;52.222;20.916;2023-12-04T04:42:16;31.17;;;14.20;;
21777;SDS011;11050;52.222;20.916;2023-12-04T04:44:42;26.43;;;14.17;;
21777;SDS011;11050;52.222;20.916;2023-12-04T04:47:08;31.00;;;15.57;;
21777;SDS011;11050;52.222;20.916;2023-12-04T04:49:33;25.53;;;11.90;;
21777;SDS011;11050;52.222;20.916;2023-12-04T04:51:59;30.93;;;13.97;;
21777;SDS011;11050;52.222;20.916;2023-12-04T04:54:25;18.47;;;8.57;;
21777;SDS011;11050;52.222;20.916;2023-12-04T04:56:51;28.00;;;13.40;;
21777;SDS011;11050;52.222;20.916;2023-12-04T04:59:16;24.10;;;12.13;;
21777;SDS011;11050;52.222;20.916;2023-12-04T05:01:42;33.93;;;15.60;;
21777;SDS011;11050;52.222;20.916;2023-12-04T05:04:08;24.37;;;9.77;;
21777;SDS011;11050;52.222;20.916;2023-12-04T05:06:34;16.63;;;8.27;;
21777;SDS011;11050;52.222;20.916;2023-12-04T05:09:00;29.83;;;15.37;;
21777;SDS011;11050;52.222;20.916;2023-12-04T05:11:25;31.67;;;15.07;;
21777;SDS011;11050;52.222;20.916;2023-12-04T05:13:51;29.40;;;14.03;;
21777;SDS011;11050;52.222;20.916;2023-12-04T05:16:17;28.53;;;13.83;;
21777;SDS011;11050;52.222;20.916;2023-12-04T05:18:42;24.83;;;11.13;;
21777;SDS011;11050;52.222;20.916;2023-12-04T05:21:09;24.23;;;12.37;;
21777;SDS011;11050;52.222;20.916;2023-12-04T05:23:36;24.03;;;12.67;;
21777;SDS011;11050;52.222;20.916;2023-12-04T05:26:03;27.93;;;14.00;;
21777;SDS011;11050;52.222;20.916;2023-12-04T05:28:31;32.00;;;15.87;;
21777;SDS011;11050;52.222;20.916;2023-12-04T05:30:57;14.33;;;7.10;;
21777;SDS011;11050;52.222;20.916;2023-12-04T05:33:23;21.27;;;10.40;;
21777;SDS011;11050;52.222;20.916;2023-12-04T05:35:49;29.90;;;14.40;;
21777;SDS011;11050;52.222;20.916;2023-12-04T05:38:18;22.50;;;10.03;;
21777;SDS011;11050;52.222;20.916;2023-12-04T05:40:44;25.57;;;12.00;;
21777;SDS011;11050;52.222;20.916;2023-12-04T05:43:10;27.87;;;13.93;;
21777;SDS011;11050;52.222;20.916;2023-12-04T05:45:36;28.20;;;13.73;;
21777;SDS011;11050;52.222;20.916;2023-12-04T05:48:03;28.77;;;13.07;;
21777;SDS011;11050;52.222;20.916;2023-12-04T05:50:29;30.63;;;14.43;;
21777;SDS011;11050;52.222;20.916;2023-12-04T05:52:55;25.77;;;12.73;;
21777;SDS011;11050;52.222;20.916;2023-12-04T05:55:20;29.03;;;14.97;;
21777;SDS011;11050;52.222;20.916;2023-12-04T05:57:46;24.40;;;12.17;;
21777;SDS011;11050;52.222;20.916;2023-12-04T06:00:12;32.07;;;14.90;;
21777;SDS011;11050;52.222;20.916;2023-12-04T06:02:38;11.83;;;6.87;;
21777;SDS011;11050;52.222;20.916;2023-12-04T06:05:05;25.40;;;11.57;;
21777;SDS011;11050;52.222;20.916;2023-12-04T06:07:32;19.13;;;8.07;;
21777;SDS011;11050;52.222;20.916;2023-12-04T06:09:59;28.97;;;13.80;;
21777;SDS011;11050;52.222;20.916;2023-12-04T06:12:25;32.17;;;16.47;;
21777;SDS011;11050;52.222;20.916;2023-12-04T06:14:51;29.90;;;14.27;;
21777;SDS011;11050;52.222;20.916;2023-12-04T06:17:17;22.80;;;10.27;;
21777;SDS011;11050;52.222;20.916;2023-12-04T06:19:42;28.80;;;14.70;;
21777;SDS011;11050;52.222;20.916;2023-12-04T06:22:08;34.70;;;16.77;;
21777;SDS011;11050;52.222;20.916;2023-12-04T06:24:34;24.37;;;12.20;;
21777;SDS011;11050;52.222;20.916;2023-12-04T06:27:01;26.57;;;11.77;;
21777;SDS011;11050;52.222;20.916;2023-12-04T06:29:27;27.37;;;13.43;;
21777;SDS011;11050;52.222;20.916;2023-12-04T06:31:53;31.20;;;14.60;;
21777;SDS011;11050;52.222;20.916;2023-12-04T06:34:19;32.80;;;15.23;;
21777;SDS011;11050;52.222;20.916;2023-12-04T06:36:46;35.23;;;15.83;;
21777;SDS011;11050;52.222;20.916;2023-12-04T06:39:12;37.30;;;16.23;;
21777;SDS011;11050;52.222;20.916;2023-12-04T06:41:41;31.10;;;14.97;;
21777;SDS011;11050;52.222;20.916;2023-12-04T06:44:08;31.73;;;15.60;;
21777;SDS011;11050;52.222;20.916;2023-12-04T06:46:36;35.53;;;16.90;;
21777;SDS011;11050;52.222;20.916;2023-12-04T06:49:04;34.67;;;17.20;;
21777;SDS011;11050;52.222;20.916;2023-12-04T06:51:33;30.30;;;13.80;;
21777;SDS011;11050;52.222;20.916;2023-12-04T06:53:59;33.90;;;16.77;;
21777;SDS011;11050;52.222;20.916;2023-12-04T06:56:25;30.30;;;14.07;;
21777;SDS011;11050;52.222;20.916;2023-12-04T06:58:51;36.23;;;18.57;;
21777;SDS011;11050;52.222;20.916;2023-12-04T07:01:17;35.00;;;15.60;;
21777;SDS011;11050;52.222;20.916;2023-12-04T07:03:42;38.30;;;19.07;;
21777;SDS011;11050;52.222;20.916;2023-12-04T07:06:08;37.93;;;18.67;;
21777;SDS011;11050;52.222;20.916;2023-12-04T07:08:34;28.43;;;14.43;;
21777;SDS011;11050;52.222;20.916;2023-12-04T07:11:00;39.10;;;18.80;;
21777;SDS011;11050;52.222;20.916;2023-12-04T07:13:25;35.60;;;17.33;;
21777;SDS011;11050;52.222;20.916;2023-12-04T07:15:51;35.07;;;15.67;;
21777;SDS011;11050;52.222;20.916;2023-12-04T07:18:17;39.47;;;18.17;;
21777;SDS011;11050;52.222;20.916;2023-12-04T07:20:43;30.33;;;14.00;;
21777;SDS011;11050;52.222;20.916;2023-12-04T07:23:08;35.90;;;18.20;;
21777;SDS011;11050;52.222;20.916;2023-12-04T07:25:34;33.80;;;16.07;;
21777;SDS011;11050;52.222;20.916;2023-12-04T07:28:00;36.27;;;17.77;;
21777;SDS011;11050;52.222;20.916;2023-12-04T07:30:25;40.03;;;19.67;;
21777;SDS011;11050;52.222;20.916;2023-12-04T07:32:51;30.40;;;13.17;;
21777;SDS011;11050;52.222;20.916;2023-12-04T07:35:18;40.83;;;19.27;;
21777;SDS011;11050;52.222;20.916;2023-12-04T07:37:44;38.33;;;17.93;;
21777;SDS011;11050;52.222;20.916;2023-12-04T07:40:10;38.17;;;18.20;;
21777;SDS011;11050;52.222;20.916;2023-12-04T07:42:36;35.30;;;18.33;;
21777;SDS011;11050;52.222;20.916;2023-12-04T07:45:03;41.43;;;19.80;;
21777;SDS011;11050;52.222;20.916;2023-12-04T07:47:30;35.47;;;16.97;;
21777;SDS011;11050;52.222;20.916;2023-12-04T07:49:55;40.90;;;17.00;;
21777;SDS011;11050;52.222;20.916;2023-12-04T07:52:21;40.90;;;19.93;;
21777;SDS011;11050;52.222;20.916;2023-12-04T07:54:47;35.97;;;17.53;;
21777;SDS011;11050;52.222;20.916;2023-12-04T07:57:12;41.97;;;19.77;;
21777;SDS011;11050;52.222;20.916;2023-12-04T07:59:39;38.63;;;18.13;;
21777;SDS011;11050;52.222;20.916;2023-12-04T08:02:05;33.13;;;14.90;;
21777;SDS011;11050;52.222;20.916;2023-12-04T08:04:30;38.33;;;17.33;;
21777;SDS011;11050;52.222;20.916;2023-12-04T08:06:56;37.00;;;19.17;;
21777;SDS011;11050;52.222;20.916;2023-12-04T08:09:22;40.50;;;19.67;;
21777;SDS011;11050;52.222;20.916;2023-12-04T08:11:48;37.97;;;17.73;;
21777;SDS011;11050;52.222;20.916;2023-12-04T08:14:13;28.43;;;13.23;;
21777;SDS011;11050;52.222;20.916;2023-12-04T08:16:41;37.00;;;18.07;;
21777;SDS011;11050;52.222;20.916;2023-12-04T08:19:07;37.40;;;17.13;;
21777;SDS011;11050;52.222;20.916;2023-12-04T08:21:32;37.03;;;16.90;;
21777;SDS011;11050;52.222;20.916;2023-12-04T08:23:58;39.67;;;17.13;;
21777;SDS011;11050;52.222;20.916;2023-12-04T08:26:24;36.60;;;16.37;;
21777;SDS011;11050;52.222;20.916;2023-12-04T08:28:51;40.53;;;18.40;;
21777;SDS011;11050;52.222;20.916;2023-12-04T08:31:17;36.73;;;17.33;;
21777;SDS011;11050;52.222;20.916;2023-12-04T08:33:43;33.93;;;17.20;;
21777;SDS011;11050;52.222;20.916;2023-12-04T08:36:10;39.93;;;18.63;;
21777;SDS011;11050;52.222;20.916;2023-12-04T08:38:37;37.47;;;16.93;;
21777;SDS011;11050;52.222;20.916;2023-12-04T08:41:03;35.33;;;16.90;;
21777;SDS011;11050;52.222;20.916;2023-12-04T08:43:29;36.97;;;17.40;;
21777;SDS011;11050;52.222;20.916;2023-12-04T08:45:56;42.23;;;18.30;;
21777;SDS011;11050;52.222;20.916;2023-12-04T08:48:22;28.47;;;11.87;;
21777;SDS011;11050;52.222;20.916;2023-12-04T08:50:48;29.87;;;13.27;;
21777;SDS011;11050;52.222;20.916;2023-12-04T08:53:14;36.07;;;16.43;;
21777;SDS011;11050;52.222;20.916;2023-12-04T08:55:39;36.53;;;17.37;;
21777;SDS011;11050;52.222;20.916;2023-12-04T08:58:05;37.20;;;16.70;;
21777;SDS011;11050;52.222;20.916;2023-12-04T09:00:31;24.23;;;12.40;;
21777;SDS011;11050;52.222;20.916;2023-12-04T09:02:57;33.23;;;15.73;;
21777;SDS011;11050;52.222;20.916;2023-12-04T09:05:23;36.17;;;16.07;;
21777;SDS011;11050;52.222;20.916;2023-12-04T09:07:49;42.77;;;19.10;;
21777;SDS011;11050;52.222;20.916;2023-12-04T09:10:15;39.60;;;17.47;;
21777;SDS011;11050;52.222;20.916;2023-12-04T09:12:42;38.57;;;16.50;;
21777;SDS011;11050;52.222;20.916;2023-12-04T09:15:07;41.33;;;18.60;;
21777;SDS011;11050;52.222;20.916;2023-12-04T09:17:33;40.20;;;17.33;;
21777;SDS011;11050;52.222;20.916;2023-12-04T09:19:59;39.73;;;18.97;;
21777;SDS011;11050;52.222;20.916;2023-12-04T09:22:25;34.00;;;16.77;;
21777;SDS011;11050;52.222;20.916;2023-12-04T09:24:50;34.27;;;15.17;;
21777;SDS011;11050;52.222;20.916;2023-12-04T09:27:16;35.00;;;17.33;;
21777;SDS011;11050;52.222;20.916;2023-12-04T09:29:42;37.00;;;16.97;;
21777;SDS011;11050;52.222;20.916;2023-12-04T09:32:08;34.80;;;17.60;;
21777;SDS011;11050;52.222;20.916;2023-12-04T09:34:35;33.70;;;15.90;;
21777;SDS011;11050;52.222;20.916;2023-12-04T09:37:01;37.27;;;17.67;;
21777;SDS011;11050;52.222;20.916;2023-12-04T09:39:27;34.70;;;15.53;;
21777;SDS011;11050;52.222;20.916;2023-12-04T09:41:53;37.87;;;16.07;;
21777;SDS011;11050;52.222;20.916;2023-12-04T09:44:21;35.07;;;14.87;;
21777;SDS011;11050;52.222;20.916;2023-12-04T09:46:49;34.07;;;16.67;;
21777;SDS011;11050;52.222;20.916;2023-12-04T09:49:17;32.40;;;15.40;;
21777;SDS011;11050;52.222;20.916;2023-12-04T09:51:43;34.13;;;16.57;;
21777;SDS011;11050;52.222;20.916;2023-12-04T09:54:10;35.27;;;15.80;;
21777;SDS011;11050;52.222;20.916;2023-12-04T09:56:37;36.23;;;16.77;;
21777;SDS011;11050;52.222;20.916;2023-12-04T09:59:04;33.67;;;13.97;;
21777;SDS011;11050;52.222;20.916;2023-12-04T10:01:32;35.73;;;16.63;;
21777;SDS011;11050;52.222;20.916;2023-12-04T10:04:01;31.83;;;15.87;;
21777;SDS011;11050;52.222;20.916;2023-12-04T10:06:30;41.83;;;18.47;;
21777;SDS011;11050;52.222;20.916;2023-12-04T10:08:56;30.43;;;11.53;;
21777;SDS011;11050;52.222;20.916;2023-12-04T10:11:23;32.67;;;15.63;;
21777;SDS011;11050;52.222;20.916;2023-12-04T10:13:50;31.43;;;15.10;;
21777;SDS011;11050;52.222;20.916;2023-12-04T10:16:35;34.00;;;16.37;;
21777;SDS011;11050;52.222;20.916;2023-12-04T10:21:56;35.33;;;15.57;;
21777;SDS011;11050;52.222;20.916;2023-12-04T10:27:05;34.97;;;17.50;;
21777;SDS011;11050;52.222;20.916;2023-12-04T10:29:47;27.47;;;12.73;;
21777;SDS011;11050;52.222;20.916;2023-12-04T10:32:20;33.20;;;16.07;;
21777;SDS011;11050;52.222;20.916;2023-12-04T10:34:49;31.27;;;14.00;;
21777;SDS011;11050;52.222;20.916;2023-12-04T10:37:15;32.03;;;14.37;;
21777;SDS011;11050;52.222;20.916;2023-12-04T10:39:45;36.40;;;15.23;;
21777;SDS011;11050;52.222;20.916;2023-12-04T10:42:22;27.40;;;13.90;;
21777;SDS011;11050;52.222;20.916;2023-12-04T10:44:56;29.90;;;14.23;;
21777;SDS011;11050;52.222;20.916;2023-12-04T10:47:23;32.40;;;14.97;;
21777;SDS011;11050;52.222;20.916;2023-12-04T10:49:50;30.17;;;12.17;;
21777;SDS011;11050;52.222;20.916;2023-12-04T10:52:17;33.20;;;16.23;;
21777;SDS011;11050;52.222;20.916;2023-12-04T10:54:47;31.77;;;13.30;;
21777;SDS011;11050;52.222;20.916;2023-12-04T10:57:37;28.63;;;14.90;;
21777;SDS011;11050;52.222;20.916;2023-12-04T11:00:04;32.93;;;15.47;;
21777;SDS011;11050;52.222;20.916;2023-12-04T11:02:33;27.40;;;12.40;;
21777;SDS011;11050;52.222;20.916;2023-12-04T11:05:07;35.30;;;15.80;;
21777;SDS011;11050;52.222;20.916;2023-12-04T11:07:39;28.70;;;14.63;;
21777;SDS011;11050;52.222;20.916;2023-12-04T11:10:09;28.00;;;11.90;;
21777;SDS011;11050;52.222;20.916;2023-12-04T11:12:38;35.70;;;15.03;;
21777;SDS011;11050;52.222;20.916;2023-12-04T11:15:10;32.47;;;15.80;;
21777;SDS011;11050;52.222;20.916;2023-12-04T11:17:43;27.70;;;12.73;;
21777;SDS011;11050;52.222;20.916;2023-12-04T11:20:16;31.60;;;14.37;;
21777;SDS011;11050;52.222;20.916;2023-12-04T11:22:47;27.73;;;13.10;;
21777;SDS011;11050;52.222;20.916;2023-12-04T11:25:16;30.43;;;15.07;;
21777;SDS011;11050;52.222;20.916;2023-12-04T11:27:43;30.00;;;13.50;;
21777;SDS011;11050;52.222;20.916;2023-12-04T11:30:09;28.83;;;14.23;;
21777;SDS011;11050;52.222;20.916;2023-12-04T11:32:46;31.17;;;13.87;;
21777;SDS011;11050;52.222;20.916;2023-12-04T11:35:14;27.80;;;14.47;;
21777;SDS011;11050;52.222;20.916;2023-12-04T11:37:43;30.50;;;13.67;;
21777;SDS011;11050;52.222;20.916;2023-12-04T11:40:13;27.33;;;11.07;;
21777;SDS011;11050;52.222;20.916;2023-12-04T11:42:41;23.43;;;9.37;;
21777;SDS011;11050;52.222;20.916;2023-12-04T11:45:07;26.07;;;13.17;;
21777;SDS011;11050;52.222;20.916;2023-12-04T11:47:50;20.73;;;9.37;;
21777;SDS011;11050;52.222;20.916;2023-12-04T11:50:20;27.30;;;13.27;;
21777;SDS011;11050;52.222;20.916;2023-12-04T11:52:46;19.30;;;9.53;;
21777;SDS011;11050;52.222;20.916;2023-12-04T11:55:22;25.77;;;12.67;;
21777;SDS011;11050;52.222;20.916;2023-12-04T11:57:51;26.47;;;12.13;;
21777;SDS011;11050;52.222;20.916;2023-12-04T12:00:22;23.70;;;10.60;;
21777;SDS011;11050;52.222;20.916;2023-12-04T12:05:18;26.63;;;13.27;;
21777;SDS011;11050;52.222;20.916;2023-12-04T12:07:50;25.70;;;12.63;;
21777;SDS011;11050;52.222;20.916;2023-12-04T12:10:16;27.00;;;12.70;;
21777;SDS011;11050;52.222;20.916;2023-12-04T12:12:42;26.93;;;13.97;;
21777;SDS011;11050;52.222;20.916;2023-12-04T12:15:11;30.03;;;13.77;;
21777;SDS011;11050;52.222;20.916;2023-12-04T12:17:38;25.80;;;14.03;;
21777;SDS011;11050;52.222;20.916;2023-12-04T12:20:07;29.63;;;14.30;;
21777;SDS011;11050;52.222;20.916;2023-12-04T12:22:35;29.37;;;13.77;;
21777;SDS011;11050;52.222;20.916;2023-12-04T12:25:06;30.10;;;14.90;;
21777;SDS011;11050;52.222;20.916;2023-12-04T12:27:34;31.20;;;13.97;;
21777;SDS011;11050;52.222;20.916;2023-12-04T12:30:00;31.43;;;14.67;;
21777;SDS011;11050;52.222;20.916;2023-12-04T12:32:26;34.60;;;14.87;;
21777;SDS011;11050;52.222;20.916;2023-12-04T12:34:52;33.80;;;14.50;;
21777;SDS011;11050;52.222;20.916;2023-12-04T12:37:19;33.00;;;16.47;;
21777;SDS011;11050;52.222;20.916;2023-12-04T12:39:46;31.63;;;15.37;;
21777;SDS011;11050;52.222;20.916;2023-12-04T12:42:20;37.10;;;17.20;;
21777;SDS011;11050;52.222;20.916;2023-12-04T12:44:53;33.77;;;15.73;;
21777;SDS011;11050;52.222;20.916;2023-12-04T12:47:24;33.20;;;16.13;;
21777;SDS011;11050;52.222;20.916;2023-12-04T12:49:50;32.20;;;15.50;;
21777;SDS011;11050;52.222;20.916;2023-12-04T12:52:17;37.57;;;16.97;;
21777;SDS011;11050;52.222;20.916;2023-12-04T12:54:44;37.37;;;15.77;;
21777;SDS011;11050;52.222;20.916;2023-12-04T12:57:11;37.80;;;17.37;;
21777;SDS011;11050;52.222;20.916;2023-12-04T12:59:38;36.17;;;15.77;;
21777;SDS011;11050;52.222;20.916;2023-12-04T13:02:04;35.90;;;15.63;;
21777;SDS011;11050;52.222;20.916;2023-12-04T13:04:35;38.60;;;17.10;;
21777;SDS011;11050;52.222;20.916;2023-12-04T13:07:09;32.60;;;16.00;;
21777;SDS011;11050;52.222;20.916;2023-12-04T13:09:35;37.80;;;18.13;;
21777;SDS011;11050;52.222;20.916;2023-12-04T13:12:04;37.23;;;17.93;;
21777;SDS011;11050;52.222;20.916;2023-12-04T13:14:32;37.27;;;17.60;;
21777;SDS011;11050;52.222;20.916;2023-12-04T13:17:03;39.17;;;18.97;;
21777;SDS011;11050;52.222;20.916;2023-12-04T13:19:29;39.07;;;18.10;;
21777;SDS011;11050;52.222;20.916;2023-12-04T13:21:56;37.40;;;17.00;;
21777;SDS011;11050;52.222;20.916;2023-12-04T13:24:22;36.23;;;19.23;;
21777;SDS011;11050;52.222;20.916;2023-12-04T13:26:48;45.63;;;19.43;;
21777;SDS011;11050;52.222;20.916;2023-12-04T13:29:14;40.70;;;18.83;;
21777;SDS011;11050;52.222;20.916;2023-12-04T13:31:40;42.00;;;18.53;;
21777;SDS011;11050;52.222;20.916;2023-12-04T13:34:06;42.77;;;19.17;;
21777;SDS011;11050;52.222;20.916;2023-12-04T13:36:33;38.03;;;19.33;;
21777;SDS011;11050;52.222;20.916;2023-12-04T13:39:01;42.40;;;19.30;;
21777;SDS011;11050;52.222;20.916;2023-12-04T13:41:29;43.83;;;19.03;;
21777;SDS011;11050;52.222;20.916;2023-12-04T13:44:14;38.23;;;17.80;;
21777;SDS011;11050;52.222;20.916;2023-12-04T13:46:40;43.27;;;19.70;;
21777;SDS011;11050;52.222;20.916;2023-12-04T13:49:06;39.83;;;19.77;;
21777;SDS011;11050;52.222;20.916;2023-12-04T13:51:32;43.60;;;20.13;;
21777;SDS011;11050;52.222;20.916;2023-12-04T13:53:59;43.40;;;21.80;;
21777;SDS011;11050;52.222;20.916;2023-12-04T13:56:40;47.37;;;21.63;;
21777;SDS011;11050;52.222;20.916;2023-12-04T13:59:17;43.50;;;21.13;;
21777;SDS011;11050;52.222;20.916;2023-12-04T14:01:45;47.27;;;23.07;;
21777;SDS011;11050;52.222;20.916;2023-12-04T14:04:11;44.97;;;21.27;;
21777;SDS011;11050;52.222;20.916;2023-12-04T14:06:38;46.87;;;21.37;;
21777;SDS011;11050;52.222;20.916;2023-12-04T14:09:03;49.33;;;21.80;;
21777;SDS011;11050;52.222;20.916;2023-12-04T14:11:34;51.40;;;23.10;;
21777;SDS011;11050;52.222;20.916;2023-12-04T14:14:03;49.63;;;22.83;;
21777;SDS011;11050;52.222;20.916;2023-12-04T14:16:30;43.20;;;20.37;;
21777;SDS011;11050;52.222;20.916;2023-12-04T14:18:56;44.77;;;21.03;;